Time;durP1;ratioP1;P1;durP2;ratioP2;P2;SDS_P1;SDS_P2;PMS_P1;PMS_P2;Temp;Humidity;BMP_temperature;BMP_pressure;BME280_temperature;BME280_humidity;BME280_pressure;Samples;Min_cycle;Max_cycle;Signal;HPM_P1;HPM_P2
2023/03/10 00:01:32;;;;;;;25.50;18.08;;;1.40;99.90;;;;;;4980881;28;20099;-62
2023/03/10 00:04:00;;;;;;;26.80;18.55;;;1.50;99.90;;;;;;5013857;28;20631;-62
2023/03/10 00:06:28;;;;;;;26.58;18.17;;;1.40;99.90;;;;;;4999073;28;20049;-62
2023/03/10 00:08:54;;;;;;;24.42;16.63;;;1.80;99.90;;;;;;4981351;28;20357;-62
2023/03/10 00:11:20;;;;;;;26.08;15.52;;;1.70;99.90;;;;;;4996544;28;20322;-63
2023/03/10 00:13:46;;;;;;;27.05;19.10;;;1.60;99.90;;;;;;4998463;28;20685;-63
2023/03/10 00:16:24;;;;;;;27.65;19.73;;;1.70;99.90;;;;;;5012208;28;20054;-62
2023/03/10 00:18:51;;;;;;;28.65;18.75;;;1.30;99.90;;;;;;4981503;28;20046;-63
2023/03/10 00:21:19;;;;;;;30.10;19.70;;;1.30;99.90;;;;;;5014029;28;20046;-63
2023/03/10 00:23:45;;;;;;;26.92;17.75;;;1.50;99.90;;;;;;4982089;28;20484;-63
2023/03/10 00:26:13;;;;;;;24.33;15.30;;;1.30;99.90;;;;;;5012096;28;20049;-63
2023/03/10 00:28:40;;;;;;;26.33;18.05;;;1.70;99.90;;;;;;4979321;28;20054;-62
2023/03/10 00:31:12;;;;;;;25.33;16.67;;;1.50;99.90;;;;;;5011264;28;20518;-63
2023/03/10 00:33:38;;;;;;;24.67;16.85;;;1.70;99.90;;;;;;5011446;28;20033;-63
2023/03/10 00:36:19;;;;;;;27.65;18.05;;;1.30;99.90;;;;;;4979428;28;20049;-65
2023/03/10 00:38:46;;;;;;;20.85;13.45;;;1.30;99.90;;;;;;4979864;28;20053;-63
2023/03/10 00:41:17;;;;;;;25.98;16.90;;;1.70;99.90;;;;;;4996680;28;20242;-62
2023/03/10 00:43:43;;;;;;;24.60;16.45;;;1.50;99.90;;;;;;4995133;28;20120;-63
2023/03/10 00:46:10;;;;;;;24.48;15.88;;;1.40;99.90;;;;;;4979472;28;20038;-62
2023/03/10 00:48:37;;;;;;;25.83;17.33;;;1.70;99.90;;;;;;4965787;28;20136;-63
2023/03/10 00:51:03;;;;;;;27.13;17.30;;;1.60;99.90;;;;;;4999865;28;20120;-63
2023/03/10 00:53:29;;;;;;;26.15;17.73;;;1.70;99.90;;;;;;4978132;28;20527;-62
2023/03/10 00:56:04;;;;;;;26.40;17.17;;;1.20;99.90;;;;;;4980040;28;20045;-63
2023/03/10 00:58:30;;;;;;;23.35;15.00;;;1.70;99.90;;;;;;5007567;28;20089;-62
2023/03/10 01:00:56;;;;;;;30.75;18.60;;;1.40;99.90;;;;;;4982918;28;20117;-63
2023/03/10 01:03:23;;;;;;;29.33;19.58;;;1.40;99.90;;;;;;4983691;28;20049;-63
2023/03/10 01:05:50;;;;;;;27.23;17.45;;;1.50;99.90;;;;;;5011486;28;20046;-63
2023/03/10 01:08:17;;;;;;;25.95;18.63;;;1.50;99.90;;;;;;4963788;28;20042;-63
2023/03/10 01:10:42;;;;;;;27.80;19.02;;;1.20;99.90;;;;;;4997914;28;20046;-62
2023/03/10 01:13:10;;;;;;;30.40;19.92;;;1.60;1.00;;;;;;4981370;28;20065;-63
2023/03/10 01:15:36;;;;;;;27.33;18.15;;;1.70;1.00;;;;;;4996016;28;20136;-66
2023/03/10 01:18:03;;;;;;;28.70;17.83;;;1.60;1.00;;;;;;4981212;28;20602;-61
2023/03/10 01:20:30;;;;;;;19.35;12.02;;;1.60;1.00;;;;;;5012511;28;20050;-62
2023/03/10 01:22:56;;;;;;;24.80;15.77;;;1.60;1.00;;;;;;4980901;28;20563;-62
2023/03/10 01:25:22;;;;;;;27.10;18.45;;;1.20;1.00;;;;;;4979365;28;20083;-61
2023/03/10 01:27:48;;;;;;;25.40;15.80;;;1.20;1.00;;;;;;4994836;28;20034;-61
2023/03/10 01:30:14;;;;;;;31.40;20.45;;;1.60;1.00;;;;;;4978921;28;20070;-62
2023/03/10 01:32:40;;;;;;;26.08;15.93;;;1.60;1.00;;;;;;4995007;28;20042;-61
2023/03/10 01:35:06;;;;;;;22.55;14.80;;;1.40;1.00;;;;;;4993701;28;20413;-63
2023/03/10 01:37:32;;;;;;;20.90;14.30;;;1.00;1.00;;;;;;5011221;28;20794;-62
2023/03/10 01:39:59;;;;;;;21.83;13.52;;;1.50;1.00;;;;;;4981021;28;20038;-62
2023/03/10 01:42:24;;;;;;;27.70;18.42;;;1.10;1.00;;;;;;4996475;28;20515;-62
2023/03/10 01:45:09;;;;;;;17.85;11.15;;;1.60;1.00;;;;;;4978637;28;20056;-61
2023/03/10 01:47:35;;;;;;;16.33;11.50;;;1.70;1.00;;;;;;5011064;28;20096;-61
2023/03/10 01:50:02;;;;;;;23.95;15.48;;;1.60;1.00;;;;;;4980241;28;20619;-63
2023/03/10 01:52:31;;;;;;;13.30;8.45;;;1.10;1.00;;;;;;4978235;28;20467;-61
2023/03/10 01:55:17;;;;;;;23.90;14.70;;;1.50;1.00;;;;;;4993547;28;20122;-62
2023/03/10 01:57:48;;;;;;;28.40;19.50;;;1.30;1.00;;;;;;4978032;28;21149;-62
2023/03/10 02:00:15;;;;;;;23.45;15.20;;;1.20;1.00;;;;;;4978575;28;20049;-63
2023/03/10 02:03:11;;;;;;;23.00;14.20;;;1.70;1.00;;;;;;4994463;28;20053;-63
2023/03/10 02:05:55;;;;;;;24.25;15.18;;;1.20;1.00;;;;;;4989553;28;20035;-63
2023/03/10 02:08:23;;;;;;;21.80;13.75;;;1.50;1.00;;;;;;4979815;28;20045;-62
2023/03/10 02:10:50;;;;;;;19.17;12.95;;;1.50;1.00;;;;;;4993556;28;20069;-62
2023/03/10 02:13:16;;;;;;;22.50;16.17;;;1.80;1.00;;;;;;4992794;28;20053;-63
2023/03/10 02:15:42;;;;;;;20.52;14.35;;;1.40;1.00;;;;;;4979919;28;20241;-62
2023/03/10 02:18:11;;;;;;;20.40;14.43;;;1.90;1.00;;;;;;4976507;28;20047;-62
2023/03/10 02:20:48;;;;;;;27.30;18.42;;;1.60;1.00;;;;;;4995220;28;20309;-62
2023/03/10 02:23:23;;;;;;;25.75;19.17;;;1.90;1.00;;;;;;4994016;28;20154;-62
2023/03/10 02:25:56;;;;;;;23.10;15.63;;;1.40;1.00;;;;;;4995015;28;20053;-62
2023/03/10 02:28:23;;;;;;;28.58;20.30;;;1.40;1.00;;;;;;4979019;28;20042;-62
2023/03/10 02:30:51;;;;;;;24.70;16.35;;;1.80;1.00;;;;;;4977635;28;20061;-62
2023/03/10 02:33:21;;;;;;;28.55;20.05;;;1.90;1.00;;;;;;5011755;28;20064;-63
2023/03/10 02:35:47;;;;;;;31.80;21.58;;;1.70;1.00;;;;;;4978207;28;20514;-63
2023/03/10 02:38:13;;;;;;;25.15;16.60;;;1.50;1.00;;;;;;4976295;28;20271;-62
2023/03/10 02:40:46;;;;;;;22.98;14.25;;;1.30;1.00;;;;;;4977257;28;20072;-63
2023/03/10 02:43:12;;;;;;;29.23;20.60;;;1.80;1.00;;;;;;5004919;28;20532;-63
2023/03/10 02:45:40;;;;;;;27.45;19.40;;;1.90;1.00;;;;;;4995662;28;20046;-64
2023/03/10 02:48:08;;;;;;;28.77;19.33;;;1.70;1.00;;;;;;4976451;28;20050;-62
2023/03/10 02:50:38;;;;;;;23.13;16.05;;;1.40;1.00;;;;;;4977292;28;20114;-62
2023/03/10 02:53:13;;;;;;;27.45;19.27;;;1.40;1.00;;;;;;4976385;28;20054;-62
2023/03/10 02:55:39;;;;;;;30.35;21.00;;;1.80;1.00;;;;;;4981235;28;20038;-62
2023/03/10 02:58:05;;;;;;;20.13;13.60;;;1.40;1.00;;;;;;4979304;28;20046;-62
2023/03/10 03:00:31;;;;;;;27.98;19.83;;;1.90;1.00;;;;;;4996551;28;20400;-63
2023/03/10 03:02:57;;;;;;;24.25;17.40;;;1.90;99.90;;;;;;4976409;28;20047;-63
2023/03/10 03:05:23;;;;;;;30.73;20.85;;;1.60;1.00;;;;;;4979536;28;20038;-63
2023/03/10 03:07:49;;;;;;;25.10;18.45;;;1.90;99.90;;;;;;4978521;28;20034;-63
2023/03/10 03:10:14;;;;;;;22.38;14.60;;;1.80;99.90;;;;;;4979387;28;20038;-62
2023/03/10 03:12:40;;;;;;;25.17;16.92;;;1.40;99.90;;;;;;5010579;28;20124;-62
2023/03/10 03:15:07;;;;;;;27.55;19.20;;;1.80;99.90;;;;;;4996023;28;20033;-62
2023/03/10 03:17:33;;;;;;;26.98;18.70;;;1.40;99.90;;;;;;4997470;28;20050;-62
2023/03/10 03:19:59;;;;;;;31.10;22.85;;;1.60;99.90;;;;;;4982605;28;20054;-62
2023/03/10 03:22:25;;;;;;;25.70;16.85;;;1.40;99.90;;;;;;5012679;28;20631;-62
2023/03/10 03:24:50;;;;;;;27.63;18.83;;;1.60;99.90;;;;;;4977336;28;20646;-61
2023/03/10 03:27:16;;;;;;;26.00;18.50;;;1.50;99.90;;;;;;4979942;28;20416;-62
2023/03/10 03:29:42;;;;;;;26.15;18.42;;;1.90;99.90;;;;;;4965554;28;20188;-63
2023/03/10 03:32:08;;;;;;;24.45;17.23;;;1.50;99.90;;;;;;4981663;28;20065;-61
2023/03/10 03:34:33;;;;;;;27.88;18.98;;;1.30;99.90;;;;;;4992953;28;20133;-63
2023/03/10 03:36:59;;;;;;;28.45;19.65;;;1.80;99.90;;;;;;4997158;28;20342;-62
2023/03/10 03:39:25;;;;;;;27.83;17.20;;;1.60;99.90;;;;;;5012011;28;20068;-63
2023/03/10 03:41:56;;;;;;;29.50;20.70;;;1.50;99.90;;;;;;4981390;28;20121;-62
2023/03/10 03:44:21;;;;;;;31.35;21.33;;;1.80;99.90;;;;;;4997589;28;20687;-62
2023/03/10 03:46:47;;;;;;;28.20;18.02;;;1.80;99.90;;;;;;5002784;28;20072;-63
2023/03/10 03:49:13;;;;;;;29.85;19.95;;;1.40;99.90;;;;;;4999939;28;20050;-62
2023/03/10 03:51:38;;;;;;;31.52;20.63;;;1.60;99.90;;;;;;4997127;28;20085;-63
2023/03/10 03:54:04;;;;;;;28.85;18.95;;;1.30;99.90;;;;;;4996408;28;20479;-62
2023/03/10 03:56:30;;;;;;;29.58;18.35;;;1.40;99.90;;;;;;4981262;28;20053;-62
2023/03/10 03:58:57;;;;;;;30.20;18.25;;;1.20;1.00;;;;;;4984775;28;20039;-62
2023/03/10 04:01:22;;;;;;;29.58;17.95;;;1.20;1.00;;;;;;4996855;28;20074;-63
2023/03/10 04:03:49;;;;;;;45.38;26.02;;;1.20;1.00;;;;;;4983076;28;20137;-62
2023/03/10 04:06:14;;;;;;;49.28;29.17;;;1.40;1.00;;;;;;4982110;28;20492;-62
2023/03/10 04:08:40;;;;;;;38.28;21.77;;;1.80;1.00;;;;;;4999046;28;20097;-62
2023/03/10 04:11:06;;;;;;;36.75;21.88;;;1.40;1.00;;;;;;4981215;28;20042;-62
2023/03/10 04:13:32;;;;;;;63.28;34.70;;;1.70;1.00;;;;;;4997866;28;20331;-63
2023/03/10 04:15:59;;;;;;;60.28;36.08;;;1.80;1.00;;;;;;4981764;28;20045;-63
2023/03/10 04:18:25;;;;;;;49.80;28.15;;;1.20;1.00;;;;;;4981039;28;20414;-61
2023/03/10 04:20:50;;;;;;;60.60;32.97;;;1.30;1.00;;;;;;4996426;28;20034;-62
2023/03/10 04:23:16;;;;;;;66.10;36.50;;;1.30;1.00;;;;;;4997506;28;20053;-63
2023/03/10 04:25:42;;;;;;;63.95;36.17;;;1.90;1.00;;;;;;4979909;28;20665;-64
2023/03/10 04:28:09;;;;;;;45.38;24.25;;;1.50;1.00;;;;;;4980759;28;20041;-63
2023/03/10 04:30:35;;;;;;;60.90;34.83;;;1.40;1.00;;;;;;4976067;28;20062;-62
2023/03/10 04:33:01;;;;;;;57.67;32.67;;;1.80;1.00;;;;;;4978271;28;20053;-63
2023/03/10 04:35:28;;;;;;;64.03;37.28;;;1.40;1.00;;;;;;4981194;28;20082;-61
2023/03/10 04:37:54;;;;;;;64.93;37.45;;;1.40;1.00;;;;;;4981661;28;20093;-64
2023/03/10 04:40:20;;;;;;;57.72;33.42;;;1.30;1.00;;;;;;4992263;28;20403;-62
2023/03/10 04:42:46;;;;;;;53.95;31.55;;;1.40;1.00;;;;;;4997156;28;20117;-63
2023/03/10 04:45:12;;;;;;;56.95;33.85;;;1.60;1.00;;;;;;4981251;28;20292;-62
2023/03/10 04:47:37;;;;;;;52.80;31.98;;;1.80;1.00;;;;;;4996743;28;20061;-61
2023/03/10 04:50:05;;;;;;;41.90;24.35;;;1.40;1.00;;;;;;5011690;28;20042;-63
2023/03/10 04:52:30;;;;;;;60.92;34.35;;;1.80;1.00;;;;;;5011921;28;20042;-62
2023/03/10 04:54:56;;;;;;;45.00;25.27;;;1.40;1.00;;;;;;4981005;28;20247;-62
2023/03/10 04:57:23;;;;;;;43.88;26.40;;;1.70;1.00;;;;;;4997634;28;20125;-62
2023/03/10 04:59:50;;;;;;;37.70;22.25;;;1.70;99.90;;;;;;4963557;28;20500;-63
2023/03/10 05:02:16;;;;;;;37.67;23.98;;;1.80;99.90;;;;;;5014130;28;20047;-63
2023/03/10 05:04:42;;;;;;;50.92;31.10;;;1.50;99.90;;;;;;4994348;28;20888;-63
2023/03/10 05:07:07;;;;;;;35.70;21.48;;;1.40;99.90;;;;;;4976739;28;20050;-62
2023/03/10 05:09:37;;;;;;;29.90;19.50;;;1.70;99.90;;;;;;4976745;28;20057;-62
2023/03/10 05:12:04;;;;;;;40.30;27.30;;;1.50;99.90;;;;;;4994323;28;20041;-62
2023/03/10 05:14:30;;;;;;;35.47;22.08;;;1.70;99.90;;;;;;4976039;28;20061;-63
2023/03/10 05:16:55;;;;;;;32.72;21.00;;;1.30;99.90;;;;;;4960335;28;20042;-62
2023/03/10 05:19:21;;;;;;;26.45;18.30;;;1.60;99.90;;;;;;4977455;28;20046;-63
2023/03/10 05:21:47;;;;;;;27.58;17.98;;;1.40;99.90;;;;;;4975668;28;20040;-64
2023/03/10 05:24:13;;;;;;;29.75;19.30;;;1.60;99.90;;;;;;4995998;28;20624;-64
2023/03/10 05:26:38;;;;;;;34.90;23.83;;;1.40;99.90;;;;;;4975836;28;20034;-64
2023/03/10 05:29:04;;;;;;;36.47;24.80;;;1.70;99.90;;;;;;5008674;28;20423;-64
2023/03/10 05:31:30;;;;;;;17.00;10.13;;;1.60;99.90;;;;;;4956064;28;20528;-63
2023/03/10 05:33:56;;;;;;;27.20;18.48;;;1.60;99.90;;;;;;4975128;28;20050;-65
2023/03/10 05:36:22;;;;;;;31.33;20.05;;;1.50;99.90;;;;;;4976394;28;20124;-64
2023/03/10 05:38:48;;;;;;;29.25;19.58;;;1.40;99.90;;;;;;4986954;28;20101;-65
2023/03/10 05:41:14;;;;;;;28.00;16.23;;;1.60;99.90;;;;;;5010057;28;20046;-64
2023/03/10 05:43:40;;;;;;;27.05;16.77;;;1.50;99.90;;;;;;4997877;28;20038;-65
2023/03/10 05:46:06;;;;;;;32.15;19.95;;;1.60;99.90;;;;;;4991746;28;20191;-64
2023/03/10 05:48:32;;;;;;;29.35;19.13;;;1.50;99.90;;;;;;4977527;28;20528;-64
2023/03/10 05:51:03;;;;;;;30.95;20.88;;;1.10;99.90;;;;;;5009104;28;20046;-64
2023/03/10 05:53:30;;;;;;;33.25;21.58;;;1.10;99.90;;;;;;4992575;28;20145;-64
2023/03/10 05:55:56;;;;;;;23.83;15.80;;;1.40;99.90;;;;;;4975177;28;20042;-64
2023/03/10 05:58:23;;;;;;;26.52;16.25;;;1.00;99.90;;;;;;4990986;28;20401;-64
2023/03/10 06:00:49;;;;;;;29.00;18.73;;;1.50;99.90;;;;;;4977958;28;20045;-62
2023/03/10 06:03:15;;;;;;;24.50;14.52;;;1.10;99.90;;;;;;5011680;28;20034;-62
2023/03/10 06:05:41;;;;;;;28.08;16.75;;;1.50;99.90;;;;;;5011673;28;20062;-63
2023/03/10 06:08:07;;;;;;;26.30;16.80;;;1.40;99.90;;;;;;4980954;28;20558;-62
2023/03/10 06:10:33;;;;;;;32.67;21.70;;;0.90;99.90;;;;;;4981508;28;20054;-62
2023/03/10 06:12:58;;;;;;;32.17;17.30;;;0.90;99.90;;;;;;4979078;28;20096;-62
2023/03/10 06:15:24;;;;;;;29.30;18.90;;;0.80;99.90;;;;;;5000295;28;20137;-62
2023/03/10 06:17:50;;;;;;;27.35;16.05;;;0.90;99.90;;;;;;4997202;28;20081;-63
2023/03/10 06:20:16;;;;;;;29.63;17.33;;;0.80;99.90;;;;;;4997137;28;20499;-63
2023/03/10 06:22:41;;;;;;;34.22;20.80;;;0.90;99.90;;;;;;4981071;28;20422;-63
2023/03/10 06:25:09;;;;;;;38.75;22.75;;;1.20;99.90;;;;;;4998501;28;20041;-63
2023/03/10 06:27:35;;;;;;;38.17;21.67;;;1.30;1.00;;;;;;4998632;28;20648;-62
2023/03/10 06:30:00;;;;;;;46.00;25.92;;;1.30;1.00;;;;;;4982635;28;20463;-63
2023/03/10 06:32:26;;;;;;;53.05;29.83;;;0.80;1.00;;;;;;4980281;28;20233;-62
2023/03/10 06:34:52;;;;;;;47.90;26.45;;;0.90;1.00;;;;;;4975751;28;20038;-64
2023/03/10 06:37:19;;;;;;;52.05;28.63;;;1.30;1.00;;;;;;4990637;28;20485;-64
2023/03/10 06:39:44;;;;;;;56.55;31.13;;;1.10;1.00;;;;;;4976904;28;20048;-64
2023/03/10 06:42:10;;;;;;;46.72;26.60;;;1.30;1.00;;;;;;4974659;28;20523;-64
2023/03/10 06:44:36;;;;;;;50.47;28.90;;;1.10;1.00;;;;;;4970877;28;20038;-64
2023/03/10 06:47:04;;;;;;;56.67;32.15;;;1.10;1.00;;;;;;4992338;28;20310;-61
2023/03/10 06:49:33;;;;;;;54.00;29.98;;;0.80;1.00;;;;;;4983076;28;20527;-63
2023/03/10 06:51:59;;;;;;;34.28;18.02;;;0.70;1.00;;;;;;4996714;28;20057;-64
2023/03/10 06:54:25;;;;;;;47.33;25.65;;;0.90;1.00;;;;;;4993896;28;20073;-63
2023/03/10 06:56:51;;;;;;;48.42;27.27;;;0.90;1.00;;;;;;4992997;28;20326;-64
2023/03/10 06:59:17;;;;;;;38.72;22.25;;;0.40;1.00;;;;;;4992421;28;20092;-63
2023/03/10 07:01:43;;;;;;;44.60;23.75;;;0.50;1.00;;;;;;4975187;28;20897;-64
2023/03/10 07:04:10;;;;;;;50.03;25.55;;;0.70;1.00;;;;;;4991651;28;20042;-63
2023/03/10 07:06:36;;;;;;;40.85;22.67;;;0.60;1.00;;;;;;4992481;28;20038;-63
2023/03/10 07:09:02;;;;;;;58.67;29.10;;;0.40;1.00;;;;;;4989864;28;20081;-63
2023/03/10 07:11:28;;;;;;;52.85;26.70;;;0.30;1.00;;;;;;5006728;28;20050;-63
2023/03/10 07:13:54;;;;;;;49.78;26.92;;;0.90;1.00;;;;;;5006816;28;20242;-63
2023/03/10 07:16:20;;;;;;;54.35;26.88;;;0.10;1.00;;;;;;4976007;28;20049;-63
2023/03/10 07:18:46;;;;;;;57.45;29.20;;;0.80;1.00;;;;;;4977878;28;20403;-65
2023/03/10 07:21:16;;;;;;;49.83;27.27;;;0.10;1.00;;;;;;4984761;28;20545;-66
2023/03/10 07:23:42;;;;;;;63.17;28.80;;;0.60;1.90;;;;;;4984252;28;20050;-61
2023/03/10 07:26:08;;;;;;;47.72;23.27;;;0.20;5.90;;;;;;4984636;28;20042;-62
2023/03/10 07:28:35;;;;;;;53.17;26.38;;;0.40;16.90;;;;;;4964683;28;20224;-64
2023/03/10 07:31:10;;;;;;;53.63;26.60;;;0.50;19.20;;;;;;4991210;28;20081;-64
2023/03/10 07:33:37;;;;;;;59.92;28.60;;;0.40;29.50;;;;;;4991225;28;20317;-64
2023/03/10 07:36:12;;;;;;;25.58;13.77;;;0.40;35.50;;;;;;4957692;28;20129;-64
2023/03/10 07:38:38;;;;;;;43.88;23.17;;;0.70;49.90;;;;;;4992606;28;20042;-62
2023/03/10 07:41:09;;;;;;;55.40;27.10;;;0.10;53.90;;;;;;4986854;28;20071;-61
2023/03/10 07:43:35;;;;;;;50.58;25.00;;;0.00;66.00;;;;;;4987500;28;20037;-62
2023/03/10 07:46:09;;;;;;;57.10;27.90;;;0.60;74.00;;;;;;4982152;28;20077;-64
2023/03/10 07:48:35;;;;;;;57.40;27.75;;;0.10;85.50;;;;;;4990622;28;20046;-62
2023/03/10 07:51:01;;;;;;;51.65;26.58;;;0.00;91.00;;;;;;4975116;28;20121;-63
2023/03/10 07:53:27;;;;;;;54.38;26.55;;;0.40;93.60;;;;;;4990110;28;20034;-64
2023/03/10 07:55:53;;;;;;;55.38;27.27;;;0.00;97.10;;;;;;4995061;28;20377;-64
2023/03/10 07:58:19;;;;;;;46.67;23.00;;;0.10;99.80;;;;;;5005090;28;20810;-63
2023/03/10 08:00:45;;;;;;;73.80;32.38;;;0.80;99.90;;;;;;4991812;28;20117;-64
2023/03/10 08:03:11;;;;;;;59.90;28.83;;;0.70;99.90;;;;;;4975116;28;20039;-63
2023/03/10 08:05:41;;;;;;;66.72;30.42;;;0.00;99.90;;;;;;4959864;28;20488;-65
2023/03/10 08:08:07;;;;;;;68.15;31.63;;;0.40;99.90;;;;;;4996448;28;20128;-63
2023/03/10 08:10:33;;;;;;;53.40;26.52;;;0.30;99.90;;;;;;5009266;28;20038;-62
2023/03/10 08:12:59;;;;;;;67.50;30.48;;;0.30;99.90;;;;;;4994149;28;20056;-64
2023/03/10 08:15:25;;;;;;;74.10;32.25;;;0.00;99.90;;;;;;5009294;28;20054;-64
2023/03/10 08:17:51;;;;;;;66.40;26.92;;;0.70;99.90;;;;;;4961316;28;20045;-64
2023/03/10 08:20:18;;;;;;;66.50;28.80;;;0.20;99.90;;;;;;4977299;28;20627;-65
2023/03/10 08:22:43;;;;;;;69.65;29.38;;;0.80;99.90;;;;;;4994752;28;20038;-65
2023/03/10 08:25:11;;;;;;;74.15;30.65;;;0.70;99.90;;;;;;4995677;28;20346;-64
2023/03/10 08:27:37;;;;;;;85.57;34.08;;;0.80;99.90;;;;;;4979293;28;20034;-63
2023/03/10 08:30:04;;;;;;;74.47;30.92;;;0.90;99.90;;;;;;4989444;28;20061;-65
2023/03/10 08:32:30;;;;;;;54.88;25.02;;;0.10;99.90;;;;;;4982567;28;20061;-62
2023/03/10 08:34:55;;;;;;;57.33;26.67;;;1.00;99.90;;;;;;4999897;28;20046;-63
2023/03/10 08:37:21;;;;;;;72.03;32.72;;;0.80;99.90;;;;;;4984401;28;20038;-64
2023/03/10 08:39:48;;;;;;;55.70;27.02;;;0.20;99.90;;;;;;5007064;28;20637;-62
2023/03/10 08:42:14;;;;;;;58.60;28.33;;;1.00;99.90;;;;;;5002079;28;20058;-64
2023/03/10 08:44:40;;;;;;;58.08;27.90;;;0.70;99.90;;;;;;4987171;28;20120;-63
2023/03/10 08:47:07;;;;;;;51.72;28.10;;;1.10;99.90;;;;;;4984016;28;20045;-64
2023/03/10 08:49:33;;;;;;;69.07;32.20;;;0.80;99.90;;;;;;4985334;28;20037;-64
2023/03/10 08:51:59;;;;;;;55.42;28.20;;;0.40;99.90;;;;;;5000438;28;20046;-62
2023/03/10 08:54:25;;;;;;;68.45;32.40;;;0.80;99.90;;;;;;5003521;28;20046;-63
2023/03/10 08:56:50;;;;;;;50.47;26.10;;;1.20;99.90;;;;;;4985805;28;20146;-65
2023/03/10 08:59:17;;;;;;;65.95;32.53;;;0.40;99.90;;;;;;4987142;28;20050;-63
2023/03/10 09:01:42;;;;;;;49.20;25.23;;;0.40;99.90;;;;;;5003841;28;20041;-64
2023/03/10 09:04:09;;;;;;;54.42;28.08;;;1.50;99.90;;;;;;5003392;28;20043;-64
2023/03/10 09:06:35;;;;;;;59.10;31.15;;;1.40;99.90;;;;;;4988276;28;20038;-64
2023/03/10 09:09:02;;;;;;;33.30;17.73;;;0.50;99.90;;;;;;4969635;28;20050;-63
2023/03/10 09:11:31;;;;;;;45.22;23.70;;;1.50;99.90;;;;;;4988484;28;20599;-63
2023/03/10 09:13:58;;;;;;;59.78;30.38;;;0.60;99.90;;;;;;4987444;28;20063;-63
2023/03/10 09:16:25;;;;;;;43.63;25.13;;;0.50;99.90;;;;;;4988374;28;20042;-63
2023/03/10 09:18:50;;;;;;;44.83;24.50;;;1.50;99.90;;;;;;5005198;28;20124;-63
2023/03/10 09:21:18;;;;;;;50.55;27.13;;;1.60;99.90;;;;;;5002497;28;20047;-63
2023/03/10 09:23:45;;;;;;;54.35;29.02;;;1.00;99.90;;;;;;4990421;28;20080;-63
2023/03/10 09:26:11;;;;;;;50.40;26.23;;;0.50;99.90;;;;;;5003816;28;20104;-64
2023/03/10 09:28:37;;;;;;;43.10;22.90;;;1.40;99.90;;;;;;4987964;28;20034;-64
2023/03/10 09:31:07;;;;;;;53.85;27.88;;;1.40;99.90;;;;;;4989053;28;20058;-64
2023/03/10 09:33:33;;;;;;;53.65;29.27;;;0.70;99.90;;;;;;4987602;28;20077;-64
2023/03/10 09:36:01;;;;;;;43.72;22.70;;;1.30;99.90;;;;;;4976995;28;20308;-64
2023/03/10 09:38:27;;;;;;;40.83;22.80;;;1.60;99.90;;;;;;5002129;28;20046;-65
2023/03/10 09:41:14;;;;;;;39.20;21.23;;;1.30;99.90;;;;;;5000044;28;20120;-65
2023/03/10 09:43:49;;;;;;;49.85;26.85;;;1.20;99.90;;;;;;4997514;28;20249;-63
2023/03/10 09:46:27;;;;;;;47.88;24.80;;;1.50;99.90;;;;;;4985478;28;20583;-64
2023/03/10 09:49:11;;;;;;;44.67;24.30;;;0.70;99.90;;;;;;4999287;28;20050;-63
2023/03/10 09:51:42;;;;;;;35.88;21.10;;;1.20;99.90;;;;;;4981338;28;20050;-64
2023/03/10 09:54:35;;;;;;;53.42;26.83;;;0.70;99.90;;;;;;4977978;28;20635;-63
2023/03/10 09:57:06;;;;;;;52.40;26.87;;;0.70;99.90;;;;;;4983119;28;20459;-63
2023/03/10 09:59:39;;;;;;;39.25;21.30;;;1.00;99.90;;;;;;4992972;28;20050;-64
2023/03/10 10:02:35;;;;;;;49.50;27.08;;;1.70;99.90;;;;;;4974184;28;20380;-62
2023/03/10 10:05:05;;;;;;;58.28;29.17;;;0.80;99.90;;;;;;4990274;28;20038;-64
2023/03/10 10:07:45;;;;;;;52.53;27.52;;;1.50;99.90;;;;;;5006588;28;20088;-62
2023/03/10 10:10:16;;;;;;;51.65;27.33;;;0.70;99.90;;;;;;5002611;28;20082;-63
2023/03/10 10:12:43;;;;;;;48.10;25.42;;;0.80;99.90;;;;;;4974276;28;20475;-63
2023/03/10 10:15:16;;;;;;;46.67;24.08;;;0.70;99.90;;;;;;4959523;28;20116;-64
2023/03/10 10:18:04;;;;;;;36.42;20.08;;;0.80;99.90;;;;;;4975526;28;20050;-64
2023/03/10 10:20:32;;;;;;;47.85;25.05;;;1.10;99.90;;;;;;4990170;28;20189;-64
2023/03/10 10:22:58;;;;;;;45.35;25.05;;;1.80;99.90;;;;;;4987039;28;20523;-63
2023/03/10 10:25:29;;;;;;;45.22;24.90;;;0.90;99.90;;;;;;4992525;28;20034;-64
2023/03/10 10:27:55;;;;;;;48.60;27.02;;;1.60;99.90;;;;;;5002368;28;20038;-63
2023/03/10 10:30:35;;;;;;;46.58;27.02;;;1.20;99.90;;;;;;4976601;28;20131;-64
2023/03/10 10:33:09;;;;;;;48.80;26.35;;;1.50;99.90;;;;;;4976301;28;20054;-64
2023/03/10 10:35:44;;;;;;;50.10;26.60;;;1.60;99.90;;;;;;4976174;28;20061;-65
2023/03/10 10:38:10;;;;;;;47.63;25.08;;;1.00;99.90;;;;;;4976472;28;20054;-65
2023/03/10 10:41:01;;;;;;;56.47;29.90;;;2.00;99.90;;;;;;4975879;28;20106;-62
2023/03/10 10:43:27;;;;;;;40.38;22.27;;;1.00;99.90;;;;;;4976780;28;20050;-63
2023/03/10 10:45:56;;;;;;;34.67;20.23;;;1.20;99.90;;;;;;4977384;28;20132;-62
2023/03/10 10:48:36;;;;;;;36.40;19.13;;;2.00;99.90;;;;;;4991795;28;20046;-62
2023/03/10 10:51:03;;;;;;;40.53;24.00;;;1.00;99.90;;;;;;4978956;28;20176;-62
2023/03/10 10:53:33;;;;;;;48.40;28.60;;;0.90;99.90;;;;;;4959781;28;20113;-63
2023/03/10 10:56:04;;;;;;;32.65;19.35;;;1.20;99.90;;;;;;4978725;28;20053;-62
2023/03/10 10:58:32;;;;;;;28.50;16.52;;;1.80;99.90;;;;;;4987215;28;20049;-61
2023/03/10 11:01:01;;;;;;;46.60;25.90;;;0.90;99.90;;;;;;4984233;28;20057;-61
2023/03/10 11:03:35;;;;;;;30.77;18.42;;;1.10;99.90;;;;;;5017619;28;20582;-61
2023/03/10 11:06:13;;;;;;;38.65;23.90;;;1.90;99.90;;;;;;4985400;28;20050;-61
2023/03/10 11:08:41;;;;;;;35.30;20.50;;;1.00;99.90;;;;;;4988121;28;20492;-62
2023/03/10 11:11:33;;;;;;;30.05;17.90;;;1.70;99.90;;;;;;5003545;28;20535;-62
2023/03/10 11:14:23;;;;;;;43.60;25.48;;;1.30;99.90;;;;;;4985249;28;20455;-62
2023/03/10 11:16:55;;;;;;;34.40;20.08;;;1.40;99.90;;;;;;4985580;28;20313;-63
2023/03/10 11:19:29;;;;;;;42.53;23.15;;;1.50;99.90;;;;;;4984591;28;20038;-61
2023/03/10 11:22:02;;;;;;;34.15;20.63;;;2.00;99.90;;;;;;5010916;28;20131;-60
2023/03/10 11:24:41;;;;;;;41.67;25.48;;;2.00;99.90;;;;;;4998567;28;20484;-63
2023/03/10 11:27:18;;;;;;;35.53;20.65;;;1.10;99.90;;;;;;4983849;28;20479;-62
2023/03/10 11:29:59;;;;;;;40.25;23.42;;;1.70;99.90;;;;;;4966787;28;20351;-62
2023/03/10 11:32:58;;;;;;;48.28;27.45;;;1.00;99.90;;;;;;4995927;28;20054;-63
2023/03/10 11:35:44;;;;;;;39.45;22.30;;;2.00;99.90;;;;;;4991067;28;20428;-64
2023/03/10 11:38:35;;;;;;;32.05;18.52;;;1.90;99.90;;;;;;4992973;28;20433;-63
2023/03/10 11:41:13;;;;;;;44.42;25.05;;;1.00;99.90;;;;;;4998102;28;20042;-63
2023/03/10 11:44:07;;;;;;;28.92;17.95;;;1.10;99.90;;;;;;4980504;28;20329;-59
2023/03/10 11:46:44;;;;;;;36.55;22.58;;;2.00;99.90;;;;;;4994943;28;20046;-63
2023/03/10 11:49:12;;;;;;;42.20;24.85;;;1.50;99.90;;;;;;4997511;28;20547;-63
2023/03/10 11:51:44;;;;;;;38.63;22.50;;;2.10;99.90;;;;;;4982295;28;20432;-63
2023/03/10 11:54:24;;;;;;;37.22;22.25;;;1.20;99.90;;;;;;4979600;28;20117;-64
2023/03/10 11:56:51;;;;;;;39.78;23.63;;;1.20;99.90;;;;;;4975441;28;20064;-64
2023/03/10 11:59:29;;;;;;;43.88;26.42;;;1.90;99.90;;;;;;4965850;28;20125;-63
2023/03/10 12:02:23;;;;;;;46.15;27.33;;;1.40;99.90;;;;;;4996182;28;20283;-64
2023/03/10 12:05:19;;;;;;;40.10;25.25;;;2.00;99.90;;;;;;4978658;28;20059;-64
2023/03/10 12:07:49;;;;;;;38.53;21.02;;;1.80;99.90;;;;;;4977224;28;20221;-63
2023/03/10 12:10:17;;;;;;;41.00;25.52;;;2.10;99.90;;;;;;5009778;28;20042;-63
2023/03/10 12:12:48;;;;;;;39.20;23.20;;;2.10;99.90;;;;;;4994336;28;20762;-64
2023/03/10 12:15:37;;;;;;;39.75;23.77;;;1.30;99.90;;;;;;4981082;28;20268;-64
2023/03/10 12:18:05;;;;;;;43.78;25.27;;;1.90;99.90;;;;;;4978605;28;20072;-65
2023/03/10 12:20:33;;;;;;;36.90;22.05;;;2.00;99.90;;;;;;5010891;28;20876;-64
2023/03/10 12:23:08;;;;;;;37.92;21.92;;;2.00;99.90;;;;;;4993338;28;20034;-63
2023/03/10 12:25:36;;;;;;;26.98;16.00;;;1.50;99.90;;;;;;4995313;28;20100;-63
2023/03/10 12:28:26;;;;;;;20.67;13.10;;;1.50;99.90;;;;;;4995561;28;20042;-64
2023/03/10 12:31:31;;;;;;;33.25;20.77;;;2.10;99.90;;;;;;4976103;28;20038;-64
2023/03/10 12:34:16;;;;;;;29.20;17.83;;;1.80;99.90;;;;;;4974095;28;20050;-64
2023/03/10 12:36:45;;;;;;;31.45;19.17;;;2.00;99.90;;;;;;4978118;28;20112;-64
2023/03/10 12:39:30;;;;;;;36.45;22.45;;;2.00;99.90;;;;;;4991832;28;20306;-64
2023/03/10 12:42:01;;;;;;;25.63;18.08;;;1.50;99.90;;;;;;5009763;28;20120;-65
2023/03/10 12:44:42;;;;;;;38.75;23.33;;;2.00;99.90;;;;;;5010520;28;20124;-66
2023/03/10 12:47:12;;;;;;;32.42;20.13;;;1.70;99.90;;;;;;5009517;28;20545;-65
2023/03/10 12:49:44;;;;;;;34.88;21.52;;;1.80;99.90;;;;;;4993608;28;20050;-64
2023/03/10 12:52:39;;;;;;;38.55;23.17;;;1.00;99.90;;;;;;4990834;28;20054;-65